sensor_id;sensor_type;location;lat;lon;timestamp;pressure;altitude;pressure_sealevel;temperature;humidity
74722;BME280;63470;49.826;6.740;2023-03-01T00:00:04;101341.50;;;-1.36;56.34
74722;BME280;63470;49.826;6.740;2023-03-01T00:02:33;101337.91;;;-1.36;56.29
74722;BME280;63470;49.826;6.740;2023-03-01T00:05:04;101336.73;;;-1.39;56.32
74722;BME280;63470;49.826;6.740;2023-03-01T00:07:34;101333.78;;;-1.44;56.36
74722;BME280;63470;49.826;6.740;2023-03-01T00:10:05;101340.44;;;-1.50;56.39
74722;BME280;63470;49.826;6.740;2023-03-01T00:12:34;101337.41;;;-1.57;56.49
74722;BME280;63470;49.826;6.740;2023-03-01T00:15:06;101331.55;;;-1.60;56.51
74722;BME280;63470;49.826;6.740;2023-03-01T00:17:35;101336.83;;;-1.59;56.50
74722;BME280;63470;49.826;6.740;2023-03-01T00:20:11;101342.52;;;-1.59;56.47
74722;BME280;63470;49.826;6.740;2023-03-01T00:22:37;101344.66;;;-1.58;56.45
74722;BME280;63470;49.826;6.740;2023-03-01T00:25:07;101337.09;;;-1.57;56.43
74722;BME280;63470;49.826;6.740;2023-03-01T00:27:38;101342.03;;;-1.60;56.43
74722;BME280;63470;49.826;6.740;2023-03-01T00:30:10;101341.18;;;-1.65;56.48
74722;BME280;63470;49.826;6.740;2023-03-01T00:32:39;101339.78;;;-1.65;56.51
74722;BME280;63470;49.826;6.740;2023-03-01T00:35:10;101339.53;;;-1.65;56.51
74722;BME280;63470;49.826;6.740;2023-03-01T00:37:42;101333.61;;;-1.65;56.55
74722;BME280;63470;49.826;6.740;2023-03-01T00:40:12;101335.52;;;-1.62;56.52
74722;BME280;63470;49.826;6.740;2023-03-01T00:42:41;101331.84;;;-1.61;56.46
74722;BME280;63470;49.826;6.740;2023-03-01T00:45:14;101339.10;;;-1.67;56.54
74722;BME280;63470;49.826;6.740;2023-03-01T00:47:42;101334.05;;;-1.69;56.64
74722;BME280;63470;49.826;6.740;2023-03-01T00:50:13;101341.66;;;-1.69;56.64
74722;BME280;63470;49.826;6.740;2023-03-01T00:52:44;101341.48;;;-1.71;56.65
74722;BME280;63470;49.826;6.740;2023-03-01T00:55:14;101341.23;;;-1.70;56.65
74722;BME280;63470;49.826;6.740;2023-03-01T00:57:45;101341.78;;;-1.69;56.62
74722;BME280;63470;49.826;6.740;2023-03-01T01:00:16;101343.41;;;-1.66;56.56
74722;BME280;63470;49.826;6.740;2023-03-01T01:02:46;101348.62;;;-1.65;56.54
74722;BME280;63470;49.826;6.740;2023-03-01T01:05:21;101342.80;;;-1.65;56.57
74722;BME280;63470;49.826;6.740;2023-03-01T01:07:47;101343.33;;;-1.61;56.58
74722;BME280;63470;49.826;6.740;2023-03-01T01:10:18;101335.34;;;-1.60;56.59
74722;BME280;63470;49.826;6.740;2023-03-01T01:12:47;101333.62;;;-1.59;56.59
74722;BME280;63470;49.826;6.740;2023-03-01T01:15:18;101330.83;;;-1.61;56.60
74722;BME280;63470;49.826;6.740;2023-03-01T01:17:49;101327.97;;;-1.66;56.67
74722;BME280;63470;49.826;6.740;2023-03-01T01:20:19;101328.69;;;-1.67;56.70
74722;BME280;63470;49.826;6.740;2023-03-01T01:22:49;101329.31;;;-1.74;56.76
74722;BME280;63470;49.826;6.740;2023-03-01T01:25:20;101324.52;;;-1.85;56.89
74722;BME280;63470;49.826;6.740;2023-03-01T01:27:51;101323.77;;;-1.94;56.99
74722;BME280;63470;49.826;6.740;2023-03-01T01:30:21;101313.55;;;-2.04;57.09
74722;BME280;63470;49.826;6.740;2023-03-01T01:32:52;101314.05;;;-2.09;57.09
74722;BME280;63470;49.826;6.740;2023-03-01T01:35:22;101310.60;;;-2.13;57.10
74722;BME280;63470;49.826;6.740;2023-03-01T01:37:53;101304.69;;;-2.13;57.06
74722;BME280;63470;49.826;6.740;2023-03-01T01:40:23;101297.44;;;-2.12;56.96
74722;BME280;63470;49.826;6.740;2023-03-01T01:42:54;101294.05;;;-2.11;56.91
74722;BME280;63470;49.826;6.740;2023-03-01T01:45:27;101288.92;;;-2.10;56.86
74722;BME280;63470;49.826;6.740;2023-03-01T01:47:58;101289.80;;;-2.09;56.80
74722;BME280;63470;49.826;6.740;2023-03-01T01:50:25;101290.39;;;-2.05;56.77
74722;BME280;63470;49.826;6.740;2023-03-01T01:52:56;101286.75;;;-1.99;56.72
74722;BME280;63470;49.826;6.740;2023-03-01T01:55:27;101280.47;;;-1.94;56.64
74722;BME280;63470;49.826;6.740;2023-03-01T01:58:02;101273.08;;;-1.87;56.64
74722;BME280;63470;49.826;6.740;2023-03-01T02:00:29;101266.45;;;-1.85;56.61
74722;BME280;63470;49.826;6.740;2023-03-01T02:03:22;101262.66;;;-1.85;56.62
74722;BME280;63470;49.826;6.740;2023-03-01T02:05:44;101257.70;;;-1.87;56.68
74722;BME280;63470;49.826;6.740;2023-03-01T02:08:01;101252.47;;;-1.85;56.66
74722;BME280;63470;49.826;6.740;2023-03-01T02:10:34;101246.55;;;-1.85;56.66
74722;BME280;63470;49.826;6.740;2023-03-01T02:13:00;101245.36;;;-1.83;56.68
74722;BME280;63470;49.826;6.740;2023-03-01T02:15:34;101246.14;;;-1.82;56.64
74722;BME280;63470;49.826;6.740;2023-03-01T02:18:02;101245.39;;;-1.82;56.68
74722;BME280;63470;49.826;6.740;2023-03-01T02:21:01;101244.20;;;-1.77;56.63
74722;BME280;63470;49.826;6.740;2023-03-01T02:23:02;101243.33;;;-1.76;56.60
74722;BME280;63470;49.826;6.740;2023-03-01T02:25:50;101243.36;;;-1.79;56.67
74722;BME280;63470;49.826;6.740;2023-03-01T02:28:20;101242.32;;;-1.82;56.71
74722;BME280;63470;49.826;6.740;2023-03-01T02:30:35;101242.45;;;-1.84;56.72
74722;BME280;63470;49.826;6.740;2023-03-01T02:33:05;101244.70;;;-1.90;56.83
74722;BME280;63470;49.826;6.740;2023-03-01T02:35:38;101242.66;;;-1.95;56.90
74722;BME280;63470;49.826;6.740;2023-03-01T02:38:07;101240.55;;;-1.96;56.94
74722;BME280;63470;49.826;6.740;2023-03-01T02:40:37;101239.22;;;-1.97;56.95
74722;BME280;63470;49.826;6.740;2023-03-01T02:43:10;101243.66;;;-1.94;56.92
74722;BME280;63470;49.826;6.740;2023-03-01T02:45:36;101233.22;;;-1.88;56.86
74722;BME280;63470;49.826;6.740;2023-03-01T02:48:07;101231.45;;;-1.80;56.76
74722;BME280;63470;49.826;6.740;2023-03-01T02:51:05;101232.59;;;-1.75;56.74
74722;BME280;63470;49.826;6.740;2023-03-01T02:53:12;101229.27;;;-1.70;56.70
74722;BME280;63470;49.826;6.740;2023-03-01T02:55:39;101221.34;;;-1.63;56.67
74722;BME280;63470;49.826;6.740;2023-03-01T02:58:08;101223.84;;;-1.58;56.64
74722;BME280;63470;49.826;6.740;2023-03-01T03:00:47;101219.86;;;-1.58;56.69
74722;BME280;63470;49.826;6.740;2023-03-01T03:03:10;101220.86;;;-1.57;56.72
74722;BME280;63470;49.826;6.740;2023-03-01T03:05:41;101218.95;;;-1.50;56.71
74722;BME280;63470;49.826;6.740;2023-03-01T03:08:12;101220.51;;;-1.44;56.65
74722;BME280;63470;49.826;6.740;2023-03-01T03:10:42;101217.14;;;-1.37;56.62
74722;BME280;63470;49.826;6.740;2023-03-01T03:13:13;101214.52;;;-1.32;56.58
74722;BME280;63470;49.826;6.740;2023-03-01T03:15:43;101209.11;;;-1.28;56.57
74722;BME280;63470;49.826;6.740;2023-03-01T03:18:16;101208.33;;;-1.26;56.56
74722;BME280;63470;49.826;6.740;2023-03-01T03:20:43;101204.28;;;-1.26;56.59
74722;BME280;63470;49.826;6.740;2023-03-01T03:23:13;101198.84;;;-1.26;56.61
74722;BME280;63470;49.826;6.740;2023-03-01T03:25:47;101195.31;;;-1.25;56.62
74722;BME280;63470;49.826;6.740;2023-03-01T03:28:14;101191.55;;;-1.26;56.64
74722;BME280;63470;49.826;6.740;2023-03-01T03:30:45;101190.19;;;-1.26;56.65
74722;BME280;63470;49.826;6.740;2023-03-01T03:33:16;101190.84;;;-1.26;56.63
74722;BME280;63470;49.826;6.740;2023-03-01T03:35:48;101188.28;;;-1.27;56.67
74722;BME280;63470;49.826;6.740;2023-03-01T03:38:18;101183.45;;;-1.26;56.69
74722;BME280;63470;49.826;6.740;2023-03-01T03:40:50;101184.30;;;-1.27;56.71
74722;BME280;63470;49.826;6.740;2023-03-01T03:43:22;101178.95;;;-1.27;56.70
74722;BME280;63470;49.826;6.740;2023-03-01T03:45:50;101177.38;;;-1.27;56.72
74722;BME280;63470;49.826;6.740;2023-03-01T03:48:19;101176.04;;;-1.24;56.71
74722;BME280;63470;49.826;6.740;2023-03-01T03:50:56;101167.42;;;-1.23;56.69
74722;BME280;63470;49.826;6.740;2023-03-01T03:53:20;101167.58;;;-1.23;56.69
74722;BME280;63470;49.826;6.740;2023-03-01T03:55:50;101160.50;;;-1.24;56.75
74722;BME280;63470;49.826;6.740;2023-03-01T03:58:23;101160.66;;;-1.24;56.77
74722;BME280;63470;49.826;6.740;2023-03-01T04:00:52;101158.07;;;-1.25;56.80
74722;BME280;63470;49.826;6.740;2023-03-01T04:03:22;101159.82;;;-1.26;56.86
74722;BME280;63470;49.826;6.740;2023-03-01T04:05:57;101154.60;;;-1.25;56.86
74722;BME280;63470;49.826;6.740;2023-03-01T04:08:22;101159.53;;;-1.25;56.88
74722;BME280;63470;49.826;6.740;2023-03-01T04:10:57;101162.77;;;-1.29;56.92
74722;BME280;63470;49.826;6.740;2023-03-01T04:13:23;101161.38;;;-1.32;56.99
74722;BME280;63470;49.826;6.740;2023-03-01T04:15:54;101160.58;;;-1.33;57.02
74722;BME280;63470;49.826;6.740;2023-03-01T04:18:24;101158.41;;;-1.33;57.01
74722;BME280;63470;49.826;6.740;2023-03-01T04:20:55;101160.32;;;-1.34;57.07
74722;BME280;63470;49.826;6.740;2023-03-01T04:23:25;101159.83;;;-1.34;57.06
74722;BME280;63470;49.826;6.740;2023-03-01T04:25:57;101157.66;;;-1.33;57.04
74722;BME280;63470;49.826;6.740;2023-03-01T04:28:42;101158.24;;;-1.32;57.12
74722;BME280;63470;49.826;6.740;2023-03-01T04:30:58;101164.30;;;-1.31;57.15
74722;BME280;63470;49.826;6.740;2023-03-01T04:33:27;101159.95;;;-1.30;57.13
74722;BME280;63470;49.826;6.740;2023-03-01T04:35:58;101157.69;;;-1.29;57.11
74722;BME280;63470;49.826;6.740;2023-03-01T04:38:28;101159.15;;;-1.32;57.12
74722;BME280;63470;49.826;6.740;2023-03-01T04:40:59;101153.35;;;-1.31;57.15
74722;BME280;63470;49.826;6.740;2023-03-01T04:43:29;101148.17;;;-1.30;57.13
74722;BME280;63470;49.826;6.740;2023-03-01T04:46:05;101147.91;;;-1.28;57.16
74722;BME280;63470;49.826;6.740;2023-03-01T04:48:36;101149.33;;;-1.27;57.18
74722;BME280;63470;49.826;6.740;2023-03-01T04:51:01;101150.08;;;-1.28;57.14
74722;BME280;63470;49.826;6.740;2023-03-01T04:53:33;101142.67;;;-1.31;57.16
74722;BME280;63470;49.826;6.740;2023-03-01T04:56:03;101139.56;;;-1.32;57.16
74722;BME280;63470;49.826;6.740;2023-03-01T04:58:33;101144.73;;;-1.27;57.11
74722;BME280;63470;49.826;6.740;2023-03-01T05:01:16;101140.16;;;-1.24;57.06
74722;BME280;63470;49.826;6.740;2023-03-01T05:03:34;101146.17;;;-1.20;56.99
74722;BME280;63470;49.826;6.740;2023-03-01T05:06:05;101146.14;;;-1.19;56.97
74722;BME280;63470;49.826;6.740;2023-03-01T05:08:38;101144.52;;;-1.17;56.96
74722;BME280;63470;49.826;6.740;2023-03-01T05:11:06;101149.11;;;-1.16;56.98
74722;BME280;63470;49.826;6.740;2023-03-01T05:13:37;101149.11;;;-1.15;57.00
74722;BME280;63470;49.826;6.740;2023-03-01T05:16:07;101149.86;;;-1.16;57.03
74722;BME280;63470;49.826;6.740;2023-03-01T05:18:37;101149.89;;;-1.17;57.06
74722;BME280;63470;49.826;6.740;2023-03-01T05:21:10;101147.11;;;-1.16;57.03
74722;BME280;63470;49.826;6.740;2023-03-01T05:23:38;101141.51;;;-1.18;57.03
74722;BME280;63470;49.826;6.740;2023-03-01T05:26:08;101144.75;;;-1.19;57.15
74722;BME280;63470;49.826;6.740;2023-03-01T05:28:38;101150.19;;;-1.21;57.19
74722;BME280;63470;49.826;6.740;2023-03-01T05:31:16;101141.88;;;-1.22;57.14
74722;BME280;63470;49.826;6.740;2023-03-01T05:33:40;101138.18;;;-1.21;57.06
74722;BME280;63470;49.826;6.740;2023-03-01T05:36:10;101129.73;;;-1.22;57.03
74722;BME280;63470;49.826;6.740;2023-03-01T05:38:39;101131.61;;;-1.25;57.08
74722;BME280;63470;49.826;6.740;2023-03-01T05:41:14;101130.23;;;-1.31;57.18
74722;BME280;63470;49.826;6.740;2023-03-01T05:43:44;101126.30;;;-1.35;57.23
74722;BME280;63470;49.826;6.740;2023-03-01T05:46:13;101129.80;;;-1.39;57.27
74722;BME280;63470;49.826;6.740;2023-03-01T05:48:41;101131.06;;;-1.40;57.28
74722;BME280;63470;49.826;6.740;2023-03-01T05:51:14;101129.38;;;-1.44;57.32
74722;BME280;63470;49.826;6.740;2023-03-01T05:53:42;101132.62;;;-1.44;57.31
74722;BME280;63470;49.826;6.740;2023-03-01T05:56:12;101132.59;;;-1.44;57.29
74722;BME280;63470;49.826;6.740;2023-03-01T05:58:43;101127.80;;;-1.48;57.29
74722;BME280;63470;49.826;6.740;2023-03-01T06:01:14;101132.31;;;-1.54;57.35
74722;BME280;63470;49.826;6.740;2023-03-01T06:03:44;101128.27;;;-1.55;57.39
74722;BME280;63470;49.826;6.740;2023-03-01T06:06:15;101125.75;;;-1.59;57.41
74722;BME280;63470;49.826;6.740;2023-03-01T06:08:46;101127.05;;;-1.63;57.43
74722;BME280;63470;49.826;6.740;2023-03-01T06:11:16;101130.31;;;-1.67;57.49
74722;BME280;63470;49.826;6.740;2023-03-01T06:13:52;101138.83;;;-1.72;57.56
74722;BME280;63470;49.826;6.740;2023-03-01T06:16:17;101136.40;;;-1.75;57.58
74722;BME280;63470;49.826;6.740;2023-03-01T06:18:48;101140.64;;;-1.78;57.64
74722;BME280;63470;49.826;6.740;2023-03-01T06:21:19;101138.05;;;-1.83;57.70
74722;BME280;63470;49.826;6.740;2023-03-01T06:23:49;101144.10;;;-1.83;57.71
74722;BME280;63470;49.826;6.740;2023-03-01T06:26:20;101145.72;;;-1.84;57.70
74722;BME280;63470;49.826;6.740;2023-03-01T06:28:50;101149.31;;;-1.80;57.61
74722;BME280;63470;49.826;6.740;2023-03-01T06:31:21;101149.02;;;-1.80;57.58
74722;BME280;63470;49.826;6.740;2023-03-01T06:33:51;101152.16;;;-1.75;57.56
74722;BME280;63470;49.826;6.740;2023-03-01T06:36:22;101150.98;;;-1.67;57.47
74722;BME280;63470;49.826;6.740;2023-03-01T06:38:53;101152.91;;;-1.67;57.45
74722;BME280;63470;49.826;6.740;2023-03-01T06:41:23;101157.08;;;-1.67;57.52
74722;BME280;63470;49.826;6.740;2023-03-01T06:43:55;101153.35;;;-1.62;57.52
74722;BME280;63470;49.826;6.740;2023-03-01T06:46:24;101157.91;;;-1.56;57.47
74722;BME280;63470;49.826;6.740;2023-03-01T06:48:55;101153.09;;;-1.52;57.48
74722;BME280;63470;49.826;6.740;2023-03-01T06:51:26;101153.44;;;-1.47;57.45
74722;BME280;63470;49.826;6.740;2023-03-01T06:53:56;101145.24;;;-1.42;57.45
74722;BME280;63470;49.826;6.740;2023-03-01T06:56:32;101136.17;;;-1.35;57.42
74722;BME280;63470;49.826;6.740;2023-03-01T06:58:57;101134.45;;;-1.33;57.42
74722;BME280;63470;49.826;6.740;2023-03-01T07:01:28;101136.48;;;-1.30;57.43
74722;BME280;63470;49.826;6.740;2023-03-01T07:03:58;101140.00;;;-1.24;57.44
74722;BME280;63470;49.826;6.740;2023-03-01T07:06:29;101139.36;;;-1.13;57.36
74722;BME280;63470;49.826;6.740;2023-03-01T07:08:59;101133.17;;;-1.02;57.29
74722;BME280;63470;49.826;6.740;2023-03-01T07:11:30;101128.38;;;-0.91;57.25
74722;BME280;63470;49.826;6.740;2023-03-01T07:14:00;101122.70;;;-0.84;57.24
74722;BME280;63470;49.826;6.740;2023-03-01T07:16:31;101122.92;;;-0.75;57.21
74722;BME280;63470;49.826;6.740;2023-03-01T07:19:02;101118.15;;;-0.66;57.18
74722;BME280;63470;49.826;6.740;2023-03-01T07:21:32;101125.02;;;-0.57;57.17
74722;BME280;63470;49.826;6.740;2023-03-01T07:24:03;101122.59;;;-0.48;57.16
74722;BME280;63470;49.826;6.740;2023-03-01T07:26:33;101113.62;;;-0.38;57.13
74722;BME280;63470;49.826;6.740;2023-03-01T07:29:06;101111.69;;;-0.30;57.13
74722;BME280;63470;49.826;6.740;2023-03-01T07:31:34;101101.58;;;-0.21;57.15
74722;BME280;63470;49.826;6.740;2023-03-01T07:34:04;101106.95;;;-0.11;57.16
74722;BME280;63470;49.826;6.740;2023-03-01T07:36:35;101104.25;;;0.15;56.97
74722;BME280;63470;49.826;6.740;2023-03-01T07:39:11;101110.09;;;0.43;56.71
74722;BME280;63470;49.826;6.740;2023-03-01T07:41:36;101113.34;;;0.72;56.82
74722;BME280;63470;49.826;6.740;2023-03-01T07:44:06;101105.59;;;1.14;56.92
74722;BME280;63470;49.826;6.740;2023-03-01T07:46:37;101100.78;;;1.60;57.21
74722;BME280;63470;49.826;6.740;2023-03-01T07:49:07;101094.94;;;2.16;57.43
74722;BME280;63470;49.826;6.740;2023-03-01T07:51:38;101096.72;;;2.63;57.91
74722;BME280;63470;49.826;6.740;2023-03-01T07:54:08;101095.19;;;3.11;57.95
74722;BME280;63470;49.826;6.740;2023-03-01T07:56:39;101092.92;;;3.54;57.51
74722;BME280;63470;49.826;6.740;2023-03-01T07:59:09;101093.90;;;3.98;57.23
74722;BME280;63470;49.826;6.740;2023-03-01T08:01:45;101091.44;;;4.25;57.13
74722;BME280;63470;49.826;6.740;2023-03-01T08:04:11;101083.66;;;4.39;57.05
74722;BME280;63470;49.826;6.740;2023-03-01T08:06:41;101080.51;;;4.29;57.10
74722;BME280;63470;49.826;6.740;2023-03-01T08:09:13;101078.81;;;4.20;57.22
74722;BME280;63470;49.826;6.740;2023-03-01T08:11:42;101082.59;;;4.21;57.06
74722;BME280;63470;49.826;6.740;2023-03-01T08:14:13;101076.01;;;4.22;56.96
74722;BME280;63470;49.826;6.740;2023-03-01T08:16:43;101082.88;;;4.22;56.85
74722;BME280;63470;49.826;6.740;2023-03-01T08:19:14;101080.73;;;4.11;56.81
74722;BME280;63470;49.826;6.740;2023-03-01T08:21:44;101077.81;;;4.01;56.64
74722;BME280;63470;49.826;6.740;2023-03-01T08:24:21;101077.52;;;3.87;56.66
74722;BME280;63470;49.826;6.740;2023-03-01T08:26:45;101076.84;;;3.59;56.90
74722;BME280;63470;49.826;6.740;2023-03-01T08:29:15;101081.00;;;3.50;56.94
74722;BME280;63470;49.826;6.740;2023-03-01T08:31:46;101082.11;;;3.46;56.85
74722;BME280;63470;49.826;6.740;2023-03-01T08:34:18;101080.06;;;3.50;56.78
74722;BME280;63470;49.826;6.740;2023-03-01T08:36:46;101078.78;;;3.50;56.66
74722;BME280;63470;49.826;6.740;2023-03-01T08:39:19;101079.16;;;3.45;56.63
74722;BME280;63470;49.826;6.740;2023-03-01T08:41:49;101077.62;;;3.50;56.48
74722;BME280;63470;49.826;6.740;2023-03-01T08:44:18;101082.11;;;3.49;56.50
74722;BME280;63470;49.826;6.740;2023-03-01T08:46:52;101081.42;;;3.63;56.42
74722;BME280;63470;49.826;6.740;2023-03-01T08:49:20;101074.95;;;3.82;56.28
74722;BME280;63470;49.826;6.740;2023-03-01T08:51:50;101072.38;;;4.00;56.15
74722;BME280;63470;49.826;6.740;2023-03-01T08:54:21;101067.73;;;4.10;56.05
74722;BME280;63470;49.826;6.740;2023-03-01T08:56:51;101068.84;;;4.13;55.94
74722;BME280;63470;49.826;6.740;2023-03-01T08:59:21;101059.01;;;4.07;56.05
74722;BME280;63470;49.826;6.740;2023-03-01T09:01:53;101061.39;;;4.19;56.04
74722;BME280;63470;49.826;6.740;2023-03-01T09:04:23;101055.08;;;4.46;55.93
74722;BME280;63470;49.826;6.740;2023-03-01T09:06:58;101048.36;;;4.53;55.95
74722;BME280;63470;49.826;6.740;2023-03-01T09:09:29;101049.93;;;4.54;56.16
74722;BME280;63470;49.826;6.740;2023-03-01T09:11:54;101049.06;;;4.55;56.06
74722;BME280;63470;49.826;6.740;2023-03-01T09:14:25;101042.62;;;4.60;55.97
74722;BME280;63470;49.826;6.740;2023-03-01T09:16:56;101034.25;;;4.58;55.94
74722;BME280;63470;49.826;6.740;2023-03-01T09:19:27;101035.61;;;4.61;55.97
74722;BME280;63470;49.826;6.740;2023-03-01T09:22:02;101042.86;;;4.60;56.03
74722;BME280;63470;49.826;6.740;2023-03-01T09:24:28;101037.31;;;4.61;55.91
74722;BME280;63470;49.826;6.740;2023-03-01T09:26:59;101033.79;;;4.56;56.02
74722;BME280;63470;49.826;6.740;2023-03-01T09:29:30;101030.97;;;4.62;55.94
74722;BME280;63470;49.826;6.740;2023-03-01T09:32:08;101027.23;;;4.62;55.81
74722;BME280;63470;49.826;6.740;2023-03-01T09:34:30;101028.04;;;4.71;55.97
74722;BME280;63470;49.826;6.740;2023-03-01T09:37:03;101019.66;;;4.92;55.90
74722;BME280;63470;49.826;6.740;2023-03-01T09:39:30;101014.23;;;5.30;55.88
74722;BME280;63470;49.826;6.740;2023-03-01T09:42:03;101012.47;;;5.65;55.53
74722;BME280;63470;49.826;6.740;2023-03-01T09:47:03;101007.09;;;6.49;55.42
74722;BME280;63470;49.826;6.740;2023-03-01T09:49:35;100995.97;;;6.76;55.27
74722;BME280;63470;49.826;6.740;2023-03-01T09:52:23;100993.90;;;6.96;55.31
74722;BME280;63470;49.826;6.740;2023-03-01T09:54:38;100993.55;;;7.35;55.11
74722;BME280;63470;49.826;6.740;2023-03-01T09:57:18;100998.83;;;7.85;54.87
74722;BME280;63470;49.826;6.740;2023-03-01T10:00:03;100996.98;;;8.38;54.71
74722;BME280;63470;49.826;6.740;2023-03-01T10:09:40;100992.70;;;10.40;54.02
74722;BME280;63470;49.826;6.740;2023-03-01T10:12:24;100980.84;;;10.59;54.13
74722;BME280;63470;49.826;6.740;2023-03-01T10:19:44;100960.23;;;11.37;54.17
74722;BME280;63470;49.826;6.740;2023-03-01T10:22:19;100957.30;;;11.79;54.18
74722;BME280;63470;49.826;6.740;2023-03-01T10:24:40;100951.47;;;11.72;54.18
74722;BME280;63470;49.826;6.740;2023-03-01T10:27:49;100947.58;;;11.50;54.61
74722;BME280;63470;49.826;6.740;2023-03-01T10:29:48;100945.75;;;11.19;55.26
74722;BME280;63470;49.826;6.740;2023-03-01T10:32:13;100951.45;;;11.19;55.42
74722;BME280;63470;49.826;6.740;2023-03-01T10:34:39;100947.60;;;11.48;55.31
74722;BME280;63470;49.826;6.740;2023-03-01T10:37:18;100945.25;;;11.66;54.97
74722;BME280;63470;49.826;6.740;2023-03-01T10:40:00;100944.75;;;11.45;55.39
74722;BME280;63470;49.826;6.740;2023-03-01T10:42:33;100941.75;;;11.68;55.35
74722;BME280;63470;49.826;6.740;2023-03-01T10:44:42;100934.68;;;12.07;54.89
74722;BME280;63470;49.826;6.740;2023-03-01T10:47:17;100937.66;;;11.99;54.58
74722;BME280;63470;49.826;6.740;2023-03-01T10:50:04;100932.17;;;11.53;55.47
74722;BME280;63470;49.826;6.740;2023-03-01T10:52:17;100928.52;;;11.71;55.46
74722;BME280;63470;49.826;6.740;2023-03-01T10:54:57;100927.89;;;11.74;55.29
74722;BME280;63470;49.826;6.740;2023-03-01T10:57:33;100926.02;;;11.40;55.66
74722;BME280;63470;49.826;6.740;2023-03-01T10:59:46;100918.23;;;11.19;55.75
74722;BME280;63470;49.826;6.740;2023-03-01T11:02:25;100916.42;;;10.83;56.19
74722;BME280;63470;49.826;6.740;2023-03-01T11:07:15;100909.84;;;11.25;55.97
74722;BME280;63470;49.826;6.740;2023-03-01T11:09:44;100914.10;;;11.32;55.46
74722;BME280;63470;49.826;6.740;2023-03-01T11:12:20;100910.50;;;11.39;55.60
74722;BME280;63470;49.826;6.740;2023-03-01T11:14:50;100903.77;;;11.52;55.42
74722;BME280;63470;49.826;6.740;2023-03-01T11:17:30;100908.77;;;11.68;55.22
74722;BME280;63470;49.826;6.740;2023-03-01T11:22:22;100897.36;;;12.01;55.09
74722;BME280;63470;49.826;6.740;2023-03-01T11:24:52;100892.57;;;12.20;54.69
74722;BME280;63470;49.826;6.740;2023-03-01T11:27:32;100881.31;;;12.16;54.77
74722;BME280;63470;49.826;6.740;2023-03-01T11:30:05;100882.40;;;12.07;54.91
74722;BME280;63470;49.826;6.740;2023-03-01T11:32:21;100874.14;;;11.92;55.18
74722;BME280;63470;49.826;6.740;2023-03-01T11:35:01;100872.62;;;11.78;55.40
74722;BME280;63470;49.826;6.740;2023-03-01T11:37:43;100862.16;;;11.65;55.51
74722;BME280;63470;49.826;6.740;2023-03-01T11:40:10;100859.64;;;11.87;55.49
74722;BME280;63470;49.826;6.740;2023-03-01T11:44:54;100850.20;;;12.69;54.55
74722;BME280;63470;49.826;6.740;2023-03-01T11:50:05;100842.86;;;12.90;54.17
74722;BME280;63470;49.826;6.740;2023-03-01T11:55:07;100838.83;;;13.10;54.45
74722;BME280;63470;49.826;6.740;2023-03-01T12:00:20;100825.99;;;12.98;54.59
74722;BME280;63470;49.826;6.740;2023-03-01T12:05:08;100825.08;;;13.21;54.34
74722;BME280;63470;49.826;6.740;2023-03-01T12:10:27;100815.60;;;13.12;54.55
74722;BME280;63470;49.826;6.740;2023-03-01T12:20:19;100796.70;;;12.86;54.51
74722;BME280;63470;49.826;6.740;2023-03-01T12:25:27;100787.14;;;13.14;54.32
74722;BME280;63470;49.826;6.740;2023-03-01T12:27:50;100793.17;;;13.10;54.19
74722;BME280;63470;49.826;6.740;2023-03-01T12:32:51;100777.31;;;12.96;54.48
74722;BME280;63470;49.826;6.740;2023-03-01T12:38:05;100782.45;;;13.13;54.34
74722;BME280;63470;49.826;6.740;2023-03-01T12:42:42;100757.16;;;12.98;54.13
74722;BME280;63470;49.826;6.740;2023-03-01T12:50:11;100747.20;;;12.98;53.97
74722;BME280;63470;49.826;6.740;2023-03-01T12:52:46;100746.99;;;12.62;54.16
74722;BME280;63470;49.826;6.740;2023-03-01T12:55:15;100737.66;;;11.86;54.78
74722;BME280;63470;49.826;6.740;2023-03-01T12:57:50;100740.11;;;11.61;55.52
74722;BME280;63470;49.826;6.740;2023-03-01T13:00:22;100740.25;;;11.39;55.46
74722;BME280;63470;49.826;6.740;2023-03-01T13:08:01;100714.92;;;12.63;54.56
74722;BME280;63470;49.826;6.740;2023-03-01T13:10:21;100707.13;;;13.13;53.76
74722;BME280;63470;49.826;6.740;2023-03-01T13:12:44;100701.99;;;13.50;53.35
74722;BME280;63470;49.826;6.740;2023-03-01T13:17:45;100708.28;;;14.31;53.58
74722;BME280;63470;49.826;6.740;2023-03-01T13:20:12;100701.05;;;14.45;52.77
74722;BME280;63470;49.826;6.740;2023-03-01T13:22:38;100700.80;;;14.35;52.42
74722;BME280;63470;49.826;6.740;2023-03-01T13:27:42;100695.80;;;14.60;53.09
74722;BME280;63470;49.826;6.740;2023-03-01T13:30:38;100689.47;;;14.73;52.55
74722;BME280;63470;49.826;6.740;2023-03-01T13:32:40;100690.97;;;14.53;52.49
74722;BME280;63470;49.826;6.740;2023-03-01T13:37:41;100691.97;;;14.33;52.65
74722;BME280;63470;49.826;6.740;2023-03-01T13:42:44;100687.22;;;13.97;52.75
74722;BME280;63470;49.826;6.740;2023-03-01T13:47:44;100686.61;;;14.23;53.82
74722;BME280;63470;49.826;6.740;2023-03-01T13:50:20;100694.23;;;14.27;53.18
74722;BME280;63470;49.826;6.740;2023-03-01T13:52:45;100693.09;;;14.41;52.61
74722;BME280;63470;49.826;6.740;2023-03-01T13:55:22;100693.98;;;14.28;52.48
74722;BME280;63470;49.826;6.740;2023-03-01T13:57:48;100694.75;;;14.23;52.46
74722;BME280;63470;49.826;6.740;2023-03-01T14:00:27;100685.41;;;14.25;52.51
74722;BME280;63470;49.826;6.740;2023-03-01T14:03:10;100683.13;;;14.20;52.49
74722;BME280;63470;49.826;6.740;2023-03-01T14:05:17;100682.52;;;14.06;52.45
74722;BME280;63470;49.826;6.740;2023-03-01T14:07:51;100681.07;;;14.01;52.42
74722;BME280;63470;49.826;6.740;2023-03-01T14:10:18;100676.78;;;13.88;52.42
74722;BME280;63470;49.826;6.740;2023-03-01T14:13:19;100678.73;;;13.86;52.37
74722;BME280;63470;49.826;6.740;2023-03-01T14:15:33;100677.61;;;13.92;52.27
74722;BME280;63470;49.826;6.740;2023-03-01T14:18:14;100677.66;;;13.90;52.09
74722;BME280;63470;49.826;6.740;2023-03-01T14:20:25;100677.06;;;13.94;51.99
74722;BME280;63470;49.826;6.740;2023-03-01T14:22:53;100667.77;;;13.94;51.74